sensor_id;sensor_type;location;lat;lon;timestamp;temperature;humidity
19085;DHT22;9675;51.538;6.728;2023-05-10T00:00:27;16.60;99.90
19085;DHT22;9675;51.538;6.728;2023-05-10T00:02:54;16.60;99.90
19085;DHT22;9675;51.538;6.728;2023-05-10T00:05:22;16.60;99.90
19085;DHT22;9675;51.538;6.728;2023-05-10T00:07:49;16.60;99.90
19085;DHT22;9675;51.538;6.728;2023-05-10T00:10:16;16.50;99.90
19085;DHT22;9675;51.538;6.728;2023-05-10T00:12:43;16.50;99.90
19085;DHT22;9675;51.538;6.728;2023-05-10T00:15:10;16.50;99.90
19085;DHT22;9675;51.538;6.728;2023-05-10T00:17:37;16.50;99.90
19085;DHT22;9675;51.538;6.728;2023-05-10T00:20:05;16.50;99.90
19085;DHT22;9675;51.538;6.728;2023-05-10T00:22:34;16.50;99.90
19085;DHT22;9675;51.538;6.728;2023-05-10T00:25:01;16.50;99.90
19085;DHT22;9675;51.538;6.728;2023-05-10T00:27:28;16.40;99.90
19085;DHT22;9675;51.538;6.728;2023-05-10T00:29:55;16.40;99.90
19085;DHT22;9675;51.538;6.728;2023-05-10T00:32:22;16.40;99.90
19085;DHT22;9675;51.538;6.728;2023-05-10T00:34:49;16.40;99.90
19085;DHT22;9675;51.538;6.728;2023-05-10T00:37:16;16.40;99.90
19085;DHT22;9675;51.538;6.728;2023-05-10T00:39:44;16.40;99.90
19085;DHT22;9675;51.538;6.728;2023-05-10T00:42:11;16.40;99.90
19085;DHT22;9675;51.538;6.728;2023-05-10T00:44:38;16.40;99.90
19085;DHT22;9675;51.538;6.728;2023-05-10T00:47:06;16.30;99.90
19085;DHT22;9675;51.538;6.728;2023-05-10T00:49:34;16.30;99.90
19085;DHT22;9675;51.538;6.728;2023-05-10T00:52:02;16.30;99.90
19085;DHT22;9675;51.538;6.728;2023-05-10T00:54:30;16.30;99.90
19085;DHT22;9675;51.538;6.728;2023-05-10T00:56:58;16.30;99.90
19085;DHT22;9675;51.538;6.728;2023-05-10T00:59:25;16.30;99.90
19085;DHT22;9675;51.538;6.728;2023-05-10T01:01:53;16.30;99.90
19085;DHT22;9675;51.538;6.728;2023-05-10T01:04:20;16.30;99.90
19085;DHT22;9675;51.538;6.728;2023-05-10T01:06:51;16.30;99.90
19085;DHT22;9675;51.538;6.728;2023-05-10T01:09:18;16.30;99.90
19085;DHT22;9675;51.538;6.728;2023-05-10T01:11:46;16.30;99.90
19085;DHT22;9675;51.538;6.728;2023-05-10T01:14:17;16.20;99.90
19085;DHT22;9675;51.538;6.728;2023-05-10T01:16:47;16.20;99.90
19085;DHT22;9675;51.538;6.728;2023-05-10T01:19:19;16.20;99.90
19085;DHT22;9675;51.538;6.728;2023-05-10T01:21:56;16.20;99.90
19085;DHT22;9675;51.538;6.728;2023-05-10T01:28:23;16.20;99.90
19085;DHT22;9675;51.538;6.728;2023-05-10T01:31:30;16.20;99.90
19085;DHT22;9675;51.538;6.728;2023-05-10T01:34:07;16.10;99.90
19085;DHT22;9675;51.538;6.728;2023-05-10T01:36:42;16.10;99.90
19085;DHT22;9675;51.538;6.728;2023-05-10T01:39:17;16.10;99.90
19085;DHT22;9675;51.538;6.728;2023-05-10T01:41:54;16.10;99.90
19085;DHT22;9675;51.538;6.728;2023-05-10T01:44:31;16.10;99.90
19085;DHT22;9675;51.538;6.728;2023-05-10T01:47:06;16.10;99.90
19085;DHT22;9675;51.538;6.728;2023-05-10T01:49:41;16.10;99.90
19085;DHT22;9675;51.538;6.728;2023-05-10T01:52:13;16.10;99.90
19085;DHT22;9675;51.538;6.728;2023-05-10T01:54:50;16.10;99.90
19085;DHT22;9675;51.538;6.728;2023-05-10T01:57:22;16.10;99.90
19085;DHT22;9675;51.538;6.728;2023-05-10T01:59:53;16.10;99.90
19085;DHT22;9675;51.538;6.728;2023-05-10T02:02:22;16.10;99.90
19085;DHT22;9675;51.538;6.728;2023-05-10T02:04:54;16.00;99.90
19085;DHT22;9675;51.538;6.728;2023-05-10T02:07:24;16.00;99.90
19085;DHT22;9675;51.538;6.728;2023-05-10T02:09:53;16.00;99.90
19085;DHT22;9675;51.538;6.728;2023-05-10T02:12:23;16.00;99.90
19085;DHT22;9675;51.538;6.728;2023-05-10T02:14:53;16.00;99.90
19085;DHT22;9675;51.538;6.728;2023-05-10T02:17:21;16.00;99.90
19085;DHT22;9675;51.538;6.728;2023-05-10T02:19:52;16.00;99.90
19085;DHT22;9675;51.538;6.728;2023-05-10T02:22:22;16.00;99.90
19085;DHT22;9675;51.538;6.728;2023-05-10T02:24:52;16.00;99.90
19085;DHT22;9675;51.538;6.728;2023-05-10T02:27:22;16.00;99.90
19085;DHT22;9675;51.538;6.728;2023-05-10T02:29:50;16.00;99.90
19085;DHT22;9675;51.538;6.728;2023-05-10T02:32:19;16.00;99.90
19085;DHT22;9675;51.538;6.728;2023-05-10T02:34:48;16.00;99.90
19085;DHT22;9675;51.538;6.728;2023-05-10T02:37:20;16.00;99.90
19085;DHT22;9675;51.538;6.728;2023-05-10T02:39:49;15.90;99.90
19085;DHT22;9675;51.538;6.728;2023-05-10T02:42:20;15.90;99.90
19085;DHT22;9675;51.538;6.728;2023-05-10T02:44:52;15.90;99.90
19085;DHT22;9675;51.538;6.728;2023-05-10T02:47:21;15.90;99.90
19085;DHT22;9675;51.538;6.728;2023-05-10T02:49:48;15.90;99.90
19085;DHT22;9675;51.538;6.728;2023-05-10T02:52:21;15.90;99.90
19085;DHT22;9675;51.538;6.728;2023-05-10T02:54:55;15.90;99.90
19085;DHT22;9675;51.538;6.728;2023-05-10T02:57:27;15.80;99.90
19085;DHT22;9675;51.538;6.728;2023-05-10T02:59:58;15.80;99.90
19085;DHT22;9675;51.538;6.728;2023-05-10T03:02:25;15.80;99.90
19085;DHT22;9675;51.538;6.728;2023-05-10T03:04:53;15.80;99.90
19085;DHT22;9675;51.538;6.728;2023-05-10T03:07:21;15.80;99.90
19085;DHT22;9675;51.538;6.728;2023-05-10T03:09:49;15.70;99.90
19085;DHT22;9675;51.538;6.728;2023-05-10T03:12:23;15.70;99.90
19085;DHT22;9675;51.538;6.728;2023-05-10T03:15:03;15.70;99.90
19085;DHT22;9675;51.538;6.728;2023-05-10T03:17:48;15.70;99.90
19085;DHT22;9675;51.538;6.728;2023-05-10T03:20:25;15.80;99.90
19085;DHT22;9675;51.538;6.728;2023-05-10T03:23:02;15.70;99.90
19085;DHT22;9675;51.538;6.728;2023-05-10T03:25:34;15.70;99.90
19085;DHT22;9675;51.538;6.728;2023-05-10T03:28:02;15.70;99.90
19085;DHT22;9675;51.538;6.728;2023-05-10T03:30:31;15.70;99.90
19085;DHT22;9675;51.538;6.728;2023-05-10T03:33:04;15.70;99.90
19085;DHT22;9675;51.538;6.728;2023-05-10T03:35:32;15.70;99.90
19085;DHT22;9675;51.538;6.728;2023-05-10T03:38:00;15.70;99.90
19085;DHT22;9675;51.538;6.728;2023-05-10T03:40:28;15.70;99.90
19085;DHT22;9675;51.538;6.728;2023-05-10T03:42:57;15.70;99.90
19085;DHT22;9675;51.538;6.728;2023-05-10T03:45:24;15.70;99.90
19085;DHT22;9675;51.538;6.728;2023-05-10T03:47:51;15.60;99.90
19085;DHT22;9675;51.538;6.728;2023-05-10T03:50:19;15.60;99.90
19085;DHT22;9675;51.538;6.728;2023-05-10T03:52:46;15.60;99.90
19085;DHT22;9675;51.538;6.728;2023-05-10T03:55:15;15.60;99.90
19085;DHT22;9675;51.538;6.728;2023-05-10T03:57:42;15.60;99.90
19085;DHT22;9675;51.538;6.728;2023-05-10T04:00:10;15.60;99.90
19085;DHT22;9675;51.538;6.728;2023-05-10T04:02:38;15.60;99.90
19085;DHT22;9675;51.538;6.728;2023-05-10T04:05:05;15.60;99.90
19085;DHT22;9675;51.538;6.728;2023-05-10T04:07:33;15.60;99.90
19085;DHT22;9675;51.538;6.728;2023-05-10T04:10:00;15.60;99.90
19085;DHT22;9675;51.538;6.728;2023-05-10T04:12:28;15.60;99.90
19085;DHT22;9675;51.538;6.728;2023-05-10T04:14:55;15.50;99.90
19085;DHT22;9675;51.538;6.728;2023-05-10T04:17:22;15.50;99.90
19085;DHT22;9675;51.538;6.728;2023-05-10T04:19:49;15.50;99.90
19085;DHT22;9675;51.538;6.728;2023-05-10T04:22:18;15.50;99.90
19085;DHT22;9675;51.538;6.728;2023-05-10T04:24:45;15.50;99.90
19085;DHT22;9675;51.538;6.728;2023-05-10T04:27:12;15.50;99.90
19085;DHT22;9675;51.538;6.728;2023-05-10T04:29:41;15.50;99.90
19085;DHT22;9675;51.538;6.728;2023-05-10T04:32:08;15.50;99.90
19085;DHT22;9675;51.538;6.728;2023-05-10T04:34:36;15.50;99.90
19085;DHT22;9675;51.538;6.728;2023-05-10T04:37:03;15.50;99.90
19085;DHT22;9675;51.538;6.728;2023-05-10T04:39:30;15.50;99.90
19085;DHT22;9675;51.538;6.728;2023-05-10T04:41:57;15.50;99.90
19085;DHT22;9675;51.538;6.728;2023-05-10T04:44:24;15.50;99.90
19085;DHT22;9675;51.538;6.728;2023-05-10T04:46:52;15.50;99.90
19085;DHT22;9675;51.538;6.728;2023-05-10T04:49:19;15.50;99.90
19085;DHT22;9675;51.538;6.728;2023-05-10T04:51:47;15.50;99.90
19085;DHT22;9675;51.538;6.728;2023-05-10T04:54:14;15.50;99.90
19085;DHT22;9675;51.538;6.728;2023-05-10T04:56:41;15.50;99.90
19085;DHT22;9675;51.538;6.728;2023-05-10T04:59:08;15.40;99.90
19085;DHT22;9675;51.538;6.728;2023-05-10T05:01:35;15.50;99.90
19085;DHT22;9675;51.538;6.728;2023-05-10T05:04:03;15.40;99.90
19085;DHT22;9675;51.538;6.728;2023-05-10T05:06:30;15.50;99.90
19085;DHT22;9675;51.538;6.728;2023-05-10T05:08:57;15.50;99.90
19085;DHT22;9675;51.538;6.728;2023-05-10T05:11:24;15.50;99.90
19085;DHT22;9675;51.538;6.728;2023-05-10T05:13:51;15.50;99.90
19085;DHT22;9675;51.538;6.728;2023-05-10T05:16:19;15.50;99.90
19085;DHT22;9675;51.538;6.728;2023-05-10T05:18:53;15.50;99.90
19085;DHT22;9675;51.538;6.728;2023-05-10T05:21:28;15.50;99.90
19085;DHT22;9675;51.538;6.728;2023-05-10T05:23:55;15.50;99.90
19085;DHT22;9675;51.538;6.728;2023-05-10T05:26:22;15.50;99.90
19085;DHT22;9675;51.538;6.728;2023-05-10T05:28:49;15.50;99.90
19085;DHT22;9675;51.538;6.728;2023-05-10T05:31:19;15.50;99.90
19085;DHT22;9675;51.538;6.728;2023-05-10T05:33:46;15.50;99.90
19085;DHT22;9675;51.538;6.728;2023-05-10T05:36:13;15.50;99.90
19085;DHT22;9675;51.538;6.728;2023-05-10T05:38:41;15.40;99.90
19085;DHT22;9675;51.538;6.728;2023-05-10T05:41:10;15.50;99.90
19085;DHT22;9675;51.538;6.728;2023-05-10T05:44:02;15.40;99.90
19085;DHT22;9675;51.538;6.728;2023-05-10T05:46:30;15.40;99.90
19085;DHT22;9675;51.538;6.728;2023-05-10T05:48:57;15.40;99.90
19085;DHT22;9675;51.538;6.728;2023-05-10T05:51:24;15.50;99.90
19085;DHT22;9675;51.538;6.728;2023-05-10T05:53:53;15.50;99.90
19085;DHT22;9675;51.538;6.728;2023-05-10T05:56:20;15.40;99.90
19085;DHT22;9675;51.538;6.728;2023-05-10T05:58:49;15.40;99.90
19085;DHT22;9675;51.538;6.728;2023-05-10T06:01:16;15.40;99.90
19085;DHT22;9675;51.538;6.728;2023-05-10T06:03:43;15.40;99.90
19085;DHT22;9675;51.538;6.728;2023-05-10T06:06:10;15.40;99.90
19085;DHT22;9675;51.538;6.728;2023-05-10T06:08:37;15.40;99.90
19085;DHT22;9675;51.538;6.728;2023-05-10T06:11:06;15.40;99.90
19085;DHT22;9675;51.538;6.728;2023-05-10T06:13:33;15.40;99.90
19085;DHT22;9675;51.538;6.728;2023-05-10T06:16:00;15.50;99.90
19085;DHT22;9675;51.538;6.728;2023-05-10T06:18:28;15.50;99.90
19085;DHT22;9675;51.538;6.728;2023-05-10T06:20:55;15.40;99.90
19085;DHT22;9675;51.538;6.728;2023-05-10T06:23:22;15.50;99.90
19085;DHT22;9675;51.538;6.728;2023-05-10T06:25:51;15.50;99.90
19085;DHT22;9675;51.538;6.728;2023-05-10T06:28:19;15.40;99.90
19085;DHT22;9675;51.538;6.728;2023-05-10T06:30:46;15.50;99.90
19085;DHT22;9675;51.538;6.728;2023-05-10T06:33:13;15.50;99.90
19085;DHT22;9675;51.538;6.728;2023-05-10T06:35:41;15.50;99.90
19085;DHT22;9675;51.538;6.728;2023-05-10T06:38:08;15.50;99.90
19085;DHT22;9675;51.538;6.728;2023-05-10T06:40:35;15.50;99.90
19085;DHT22;9675;51.538;6.728;2023-05-10T06:43:02;15.50;99.90
19085;DHT22;9675;51.538;6.728;2023-05-10T06:45:30;15.50;99.90
19085;DHT22;9675;51.538;6.728;2023-05-10T06:47:57;15.50;99.90
19085;DHT22;9675;51.538;6.728;2023-05-10T06:50:25;15.50;99.90
19085;DHT22;9675;51.538;6.728;2023-05-10T06:52:52;15.50;99.90
19085;DHT22;9675;51.538;6.728;2023-05-10T06:55:19;15.50;99.90
19085;DHT22;9675;51.538;6.728;2023-05-10T06:57:46;15.50;99.90
19085;DHT22;9675;51.538;6.728;2023-05-10T07:00:14;15.50;99.90
19085;DHT22;9675;51.538;6.728;2023-05-10T07:02:44;15.50;99.90
19085;DHT22;9675;51.538;6.728;2023-05-10T07:05:11;15.50;99.90
19085;DHT22;9675;51.538;6.728;2023-05-10T07:07:38;15.50;99.90
19085;DHT22;9675;51.538;6.728;2023-05-10T07:10:06;15.60;99.90
19085;DHT22;9675;51.538;6.728;2023-05-10T07:12:33;15.60;99.90
19085;DHT22;9675;51.538;6.728;2023-05-10T07:15:00;15.60;99.90
19085;DHT22;9675;51.538;6.728;2023-05-10T07:17:27;15.60;99.90
19085;DHT22;9675;51.538;6.728;2023-05-10T07:19:56;15.60;99.90
19085;DHT22;9675;51.538;6.728;2023-05-10T07:22:23;15.60;99.90
19085;DHT22;9675;51.538;6.728;2023-05-10T07:24:50;15.60;99.90
19085;DHT22;9675;51.538;6.728;2023-05-10T07:27:17;15.60;99.90
19085;DHT22;9675;51.538;6.728;2023-05-10T07:29:44;15.60;99.90
19085;DHT22;9675;51.538;6.728;2023-05-10T07:32:11;15.60;99.90
19085;DHT22;9675;51.538;6.728;2023-05-10T07:34:38;15.60;99.90
19085;DHT22;9675;51.538;6.728;2023-05-10T07:37:06;15.60;99.90
19085;DHT22;9675;51.538;6.728;2023-05-10T07:39:34;15.60;99.90
19085;DHT22;9675;51.538;6.728;2023-05-10T07:42:01;15.60;99.90
19085;DHT22;9675;51.538;6.728;2023-05-10T07:44:28;15.60;99.90
19085;DHT22;9675;51.538;6.728;2023-05-10T07:46:55;15.60;99.90
19085;DHT22;9675;51.538;6.728;2023-05-10T07:49:22;15.70;99.90
19085;DHT22;9675;51.538;6.728;2023-05-10T07:51:50;15.70;99.90
19085;DHT22;9675;51.538;6.728;2023-05-10T07:54:18;15.70;99.90
19085;DHT22;9675;51.538;6.728;2023-05-10T07:56:46;15.70;99.90
19085;DHT22;9675;51.538;6.728;2023-05-10T07:59:16;15.70;99.90
19085;DHT22;9675;51.538;6.728;2023-05-10T08:01:43;15.70;99.90
19085;DHT22;9675;51.538;6.728;2023-05-10T08:04:11;15.80;99.90
19085;DHT22;9675;51.538;6.728;2023-05-10T08:06:39;15.80;99.90
19085;DHT22;9675;51.538;6.728;2023-05-10T08:09:06;15.80;99.90
19085;DHT22;9675;51.538;6.728;2023-05-10T08:11:35;15.80;99.90
19085;DHT22;9675;51.538;6.728;2023-05-10T08:14:02;15.80;99.90
19085;DHT22;9675;51.538;6.728;2023-05-10T08:16:29;15.80;99.90
19085;DHT22;9675;51.538;6.728;2023-05-10T08:18:56;15.80;99.90
19085;DHT22;9675;51.538;6.728;2023-05-10T08:21:23;15.90;99.90
19085;DHT22;9675;51.538;6.728;2023-05-10T08:23:51;15.90;99.90
19085;DHT22;9675;51.538;6.728;2023-05-10T08:26:18;15.90;99.90
19085;DHT22;9675;51.538;6.728;2023-05-10T08:28:47;15.90;99.90
19085;DHT22;9675;51.538;6.728;2023-05-10T08:31:15;15.90;99.90
19085;DHT22;9675;51.538;6.728;2023-05-10T08:33:43;16.00;99.90
19085;DHT22;9675;51.538;6.728;2023-05-10T08:36:11;16.00;99.90
19085;DHT22;9675;51.538;6.728;2023-05-10T08:38:39;16.00;99.90
19085;DHT22;9675;51.538;6.728;2023-05-10T08:41:06;16.00;99.90
19085;DHT22;9675;51.538;6.728;2023-05-10T08:43:36;16.00;99.90
19085;DHT22;9675;51.538;6.728;2023-05-10T08:46:05;16.10;99.90
19085;DHT22;9675;51.538;6.728;2023-05-10T08:48:35;16.20;99.90
19085;DHT22;9675;51.538;6.728;2023-05-10T08:51:04;16.20;99.90
19085;DHT22;9675;51.538;6.728;2023-05-10T08:53:36;16.30;99.90
19085;DHT22;9675;51.538;6.728;2023-05-10T08:56:04;16.30;99.90
19085;DHT22;9675;51.538;6.728;2023-05-10T08:58:32;16.40;99.90
19085;DHT22;9675;51.538;6.728;2023-05-10T09:01:01;16.40;99.90
19085;DHT22;9675;51.538;6.728;2023-05-10T09:03:29;16.50;99.90
19085;DHT22;9675;51.538;6.728;2023-05-10T09:05:56;16.60;99.90
19085;DHT22;9675;51.538;6.728;2023-05-10T09:08:25;16.60;99.90
19085;DHT22;9675;51.538;6.728;2023-05-10T09:10:54;16.60;99.90
19085;DHT22;9675;51.538;6.728;2023-05-10T09:13:22;16.70;99.90
19085;DHT22;9675;51.538;6.728;2023-05-10T09:15:52;16.80;99.90
19085;DHT22;9675;51.538;6.728;2023-05-10T09:18:19;16.80;99.90
19085;DHT22;9675;51.538;6.728;2023-05-10T09:20:48;16.90;99.90
19085;DHT22;9675;51.538;6.728;2023-05-10T09:23:15;16.90;99.90
19085;DHT22;9675;51.538;6.728;2023-05-10T09:25:42;17.00;99.90
19085;DHT22;9675;51.538;6.728;2023-05-10T09:28:09;17.10;99.90
19085;DHT22;9675;51.538;6.728;2023-05-10T09:30:36;17.10;99.90
19085;DHT22;9675;51.538;6.728;2023-05-10T09:33:04;17.20;99.90
19085;DHT22;9675;51.538;6.728;2023-05-10T09:35:32;17.20;99.90
19085;DHT22;9675;51.538;6.728;2023-05-10T09:38:03;17.20;99.90
19085;DHT22;9675;51.538;6.728;2023-05-10T09:40:32;17.30;99.90
19085;DHT22;9675;51.538;6.728;2023-05-10T09:43:00;17.30;99.90
19085;DHT22;9675;51.538;6.728;2023-05-10T09:45:29;17.40;99.90
19085;DHT22;9675;51.538;6.728;2023-05-10T09:47:58;17.40;99.90
19085;DHT22;9675;51.538;6.728;2023-05-10T09:50:27;17.40;99.90
19085;DHT22;9675;51.538;6.728;2023-05-10T09:52:57;17.40;99.90
19085;DHT22;9675;51.538;6.728;2023-05-10T09:55:38;17.40;99.90
19085;DHT22;9675;51.538;6.728;2023-05-10T09:58:06;17.50;99.90
19085;DHT22;9675;51.538;6.728;2023-05-10T10:00:36;17.50;99.90
19085;DHT22;9675;51.538;6.728;2023-05-10T10:03:05;17.50;99.90
19085;DHT22;9675;51.538;6.728;2023-05-10T10:05:34;17.50;99.90
19085;DHT22;9675;51.538;6.728;2023-05-10T10:08:05;17.50;99.90
19085;DHT22;9675;51.538;6.728;2023-05-10T10:10:34;17.50;99.90
19085;DHT22;9675;51.538;6.728;2023-05-10T10:13:02;17.50;99.90
19085;DHT22;9675;51.538;6.728;2023-05-10T10:15:30;17.50;99.90
19085;DHT22;9675;51.538;6.728;2023-05-10T10:17:59;17.50;99.90
19085;DHT22;9675;51.538;6.728;2023-05-10T10:20:28;17.50;99.90
19085;DHT22;9675;51.538;6.728;2023-05-10T10:22:56;17.50;99.90
19085;DHT22;9675;51.538;6.728;2023-05-10T10:25:23;17.50;99.90
19085;DHT22;9675;51.538;6.728;2023-05-10T10:28:04;17.50;99.90
19085;DHT22;9675;51.538;6.728;2023-05-10T10:30:45;17.50;99.90
19085;DHT22;9675;51.538;6.728;2023-05-10T10:36:46;17.60;99.90
19085;DHT22;9675;51.538;6.728;2023-05-10T10:39:29;17.50;99.90
19085;DHT22;9675;51.538;6.728;2023-05-10T10:42:13;17.50;99.90
19085;DHT22;9675;51.538;6.728;2023-05-10T10:45:21;17.50;99.90
19085;DHT22;9675;51.538;6.728;2023-05-10T10:48:22;17.60;99.90
19085;DHT22;9675;51.538;6.728;2023-05-10T10:50:56;17.60;99.90
19085;DHT22;9675;51.538;6.728;2023-05-10T10:53:26;17.60;99.90
19085;DHT22;9675;51.538;6.728;2023-05-10T10:56:05;17.60;99.90
19085;DHT22;9675;51.538;6.728;2023-05-10T10:58:35;17.60;99.90
19085;DHT22;9675;51.538;6.728;2023-05-10T11:01:12;17.60;99.90
19085;DHT22;9675;51.538;6.728;2023-05-10T11:03:41;17.60;99.90
19085;DHT22;9675;51.538;6.728;2023-05-10T11:06:41;17.60;99.90
19085;DHT22;9675;51.538;6.728;2023-05-10T11:09:10;17.60;99.90
19085;DHT22;9675;51.538;6.728;2023-05-10T11:11:50;17.60;99.90
19085;DHT22;9675;51.538;6.728;2023-05-10T11:14:21;17.60;99.90
19085;DHT22;9675;51.538;6.728;2023-05-10T11:16:50;17.70;99.90
19085;DHT22;9675;51.538;6.728;2023-05-10T11:19:18;17.70;99.90
19085;DHT22;9675;51.538;6.728;2023-05-10T11:21:46;17.70;99.90
19085;DHT22;9675;51.538;6.728;2023-05-10T11:24:16;17.70;99.90
19085;DHT22;9675;51.538;6.728;2023-05-10T11:26:45;17.70;99.90
19085;DHT22;9675;51.538;6.728;2023-05-10T11:29:12;17.70;99.90
19085;DHT22;9675;51.538;6.728;2023-05-10T11:31:43;17.80;99.90
19085;DHT22;9675;51.538;6.728;2023-05-10T11:34:23;17.80;99.90
19085;DHT22;9675;51.538;6.728;2023-05-10T11:36:51;17.80;99.90
19085;DHT22;9675;51.538;6.728;2023-05-10T11:39:19;17.80;99.90
19085;DHT22;9675;51.538;6.728;2023-05-10T11:41:48;17.80;99.90
19085;DHT22;9675;51.538;6.728;2023-05-10T11:44:20;17.80;99.90
19085;DHT22;9675;51.538;6.728;2023-05-10T11:46:52;17.90;99.90
19085;DHT22;9675;51.538;6.728;2023-05-10T11:49:20;17.90;99.90
19085;DHT22;9675;51.538;6.728;2023-05-10T11:51:52;18.00;99.90
19085;DHT22;9675;51.538;6.728;2023-05-10T11:54:19;17.90;99.90
19085;DHT22;9675;51.538;6.728;2023-05-10T11:56:45;18.00;99.90
19085;DHT22;9675;51.538;6.728;2023-05-10T11:59:14;18.00;99.90
19085;DHT22;9675;51.538;6.728;2023-05-10T12:01:41;18.00;99.90
19085;DHT22;9675;51.538;6.728;2023-05-10T12:04:08;18.00;99.90
19085;DHT22;9675;51.538;6.728;2023-05-10T12:06:40;18.00;99.90
19085;DHT22;9675;51.538;6.728;2023-05-10T12:09:07;18.10;99.90
19085;DHT22;9675;51.538;6.728;2023-05-10T12:11:37;18.10;99.90
19085;DHT22;9675;51.538;6.728;2023-05-10T12:14:06;18.10;99.90
19085;DHT22;9675;51.538;6.728;2023-05-10T12:16:35;18.10;99.90
19085;DHT22;9675;51.538;6.728;2023-05-10T12:19:02;18.10;99.90
19085;DHT22;9675;51.538;6.728;2023-05-10T12:21:30;18.10;99.90
19085;DHT22;9675;51.538;6.728;2023-05-10T12:24:02;18.10;99.90
19085;DHT22;9675;51.538;6.728;2023-05-10T12:26:30;18.20;99.90
19085;DHT22;9675;51.538;6.728;2023-05-10T12:29:12;18.20;99.90
19085;DHT22;9675;51.538;6.728;2023-05-10T12:31:54;18.20;99.90
19085;DHT22;9675;51.538;6.728;2023-05-10T12:34:26;18.20;99.90
19085;DHT22;9675;51.538;6.728;2023-05-10T12:36:57;18.30;99.90
19085;DHT22;9675;51.538;6.728;2023-05-10T12:39:26;18.30;99.90
19085;DHT22;9675;51.538;6.728;2023-05-10T12:42:05;18.40;99.90
19085;DHT22;9675;51.538;6.728;2023-05-10T12:44:32;18.40;99.90
19085;DHT22;9675;51.538;6.728;2023-05-10T12:46:59;18.40;99.90
19085;DHT22;9675;51.538;6.728;2023-05-10T12:49:26;18.40;99.90
19085;DHT22;9675;51.538;6.728;2023-05-10T12:51:53;18.50;99.90
19085;DHT22;9675;51.538;6.728;2023-05-10T12:54:20;18.50;99.90
19085;DHT22;9675;51.538;6.728;2023-05-10T12:56:49;18.60;99.90
19085;DHT22;9675;51.538;6.728;2023-05-10T12:59:16;18.60;99.90
19085;DHT22;9675;51.538;6.728;2023-05-10T13:01:44;18.70;99.90
19085;DHT22;9675;51.538;6.728;2023-05-10T13:04:11;18.80;99.90
19085;DHT22;9675;51.538;6.728;2023-05-10T13:06:38;18.80;99.90
19085;DHT22;9675;51.538;6.728;2023-05-10T13:09:05;18.90;99.90
19085;DHT22;9675;51.538;6.728;2023-05-10T13:11:32;19.00;99.90
19085;DHT22;9675;51.538;6.728;2023-05-10T13:14:01;19.00;99.90
19085;DHT22;9675;51.538;6.728;2023-05-10T13:16:28;19.10;99.90
19085;DHT22;9675;51.538;6.728;2023-05-10T13:18:55;19.20;99.90
19085;DHT22;9675;51.538;6.728;2023-05-10T13:21:22;19.20;99.90
19085;DHT22;9675;51.538;6.728;2023-05-10T13:23:50;19.30;99.90
19085;DHT22;9675;51.538;6.728;2023-05-10T13:26:17;19.40;99.90
19085;DHT22;9675;51.538;6.728;2023-05-10T13:28:44;19.50;99.90
19085;DHT22;9675;51.538;6.728;2023-05-10T13:31:13;19.50;99.90
19085;DHT22;9675;51.538;6.728;2023-05-10T13:33:40;19.50;99.90
19085;DHT22;9675;51.538;6.728;2023-05-10T13:36:07;19.60;99.90
19085;DHT22;9675;51.538;6.728;2023-05-10T13:38:34;19.60;99.90
19085;DHT22;9675;51.538;6.728;2023-05-10T13:41:01;19.70;99.90
19085;DHT22;9675;51.538;6.728;2023-05-10T13:43:29;19.70;99.90
19085;DHT22;9675;51.538;6.728;2023-05-10T13:45:56;19.80;99.90
19085;DHT22;9675;51.538;6.728;2023-05-10T13:48:24;19.80;99.90
19085;DHT22;9675;51.538;6.728;2023-05-10T13:50:53;19.80;99.90
19085;DHT22;9675;51.538;6.728;2023-05-10T13:53:20;19.90;99.90
19085;DHT22;9675;51.538;6.728;2023-05-10T13:55:47;20.00;99.90
19085;DHT22;9675;51.538;6.728;2023-05-10T13:58:15;20.00;99.90
19085;DHT22;9675;51.538;6.728;2023-05-10T14:00:42;20.00;99.90
19085;DHT22;9675;51.538;6.728;2023-05-10T14:03:09;20.10;99.90
19085;DHT22;9675;51.538;6.728;2023-05-10T14:05:38;20.10;99.90
19085;DHT22;9675;51.538;6.728;2023-05-10T14:08:05;20.10;99.90
19085;DHT22;9675;51.538;6.728;2023-05-10T14:10:34;20.20;99.90
19085;DHT22;9675;51.538;6.728;2023-05-10T14:13:02;20.20;99.90
19085;DHT22;9675;51.538;6.728;2023-05-10T14:15:29;20.30;99.90
19085;DHT22;9675;51.538;6.728;2023-05-10T14:17:56;20.30;99.90
19085;DHT22;9675;51.538;6.728;2023-05-10T14:20:23;20.30;99.90
19085;DHT22;9675;51.538;6.728;2023-05-10T14:22:52;20.40;99.90
19085;DHT22;9675;51.538;6.728;2023-05-10T14:25:18;20.40;99.90
19085;DHT22;9675;51.538;6.728;2023-05-10T14:27:46;20.40;99.90
19085;DHT22;9675;51.538;6.728;2023-05-10T14:30:14;20.50;99.90
19085;DHT22;9675;51.538;6.728;2023-05-10T14:32:41;20.50;99.90
19085;DHT22;9675;51.538;6.728;2023-05-10T14:35:08;20.50;99.90
19085;DHT22;9675;51.538;6.728;2023-05-10T14:37:35;20.60;99.90
19085;DHT22;9675;51.538;6.728;2023-05-10T14:40:06;20.60;99.90
19085;DHT22;9675;51.538;6.728;2023-05-10T14:42:34;20.60;99.90
19085;DHT22;9675;51.538;6.728;2023-05-10T14:45:01;20.60;99.90
19085;DHT22;9675;51.538;6.728;2023-05-10T14:47:29;20.70;99.90
19085;DHT22;9675;51.538;6.728;2023-05-10T14:49:56;20.70;99.90
19085;DHT22;9675;51.538;6.728;2023-05-10T14:52:23;20.70;99.90
19085;DHT22;9675;51.538;6.728;2023-05-10T14:54:51;20.70;99.90
19085;DHT22;9675;51.538;6.728;2023-05-10T14:57:19;20.70;99.90
19085;DHT22;9675;51.538;6.728;2023-05-10T14:59:46;20.70;99.90
19085;DHT22;9675;51.538;6.728;2023-05-10T15:02:13;20.70;99.90
19085;DHT22;9675;51.538;6.728;2023-05-10T15:04:40;20.70;99.90
19085;DHT22;9675;51.538;6.728;2023-05-10T15:07:07;20.70;99.90
19085;DHT22;9675;51.538;6.728;2023-05-10T15:09:34;20.70;99.90
19085;DHT22;9675;51.538;6.728;2023-05-10T15:12:01;20.70;99.90
19085;DHT22;9675;51.538;6.728;2023-05-10T15:14:30;20.80;99.90
19085;DHT22;9675;51.538;6.728;2023-05-10T15:16:58;20.70;99.90
19085;DHT22;9675;51.538;6.728;2023-05-10T15:19:25;20.70;99.90
19085;DHT22;9675;51.538;6.728;2023-05-10T15:21:54;20.60;99.90
19085;DHT22;9675;51.538;6.728;2023-05-10T15:24:21;20.60;99.90
19085;DHT22;9675;51.538;6.728;2023-05-10T15:26:48;20.60;99.90
19085;DHT22;9675;51.538;6.728;2023-05-10T15:29:15;20.50;99.90
19085;DHT22;9675;51.538;6.728;2023-05-10T15:31:46;20.50;99.90
19085;DHT22;9675;51.538;6.728;2023-05-10T15:34:14;20.60;99.90
19085;DHT22;9675;51.538;6.728;2023-05-10T15:36:41;20.50;99.90
19085;DHT22;9675;51.538;6.728;2023-05-10T15:39:09;20.50;99.90
19085;DHT22;9675;51.538;6.728;2023-05-10T15:41:36;20.50;99.90
19085;DHT22;9675;51.538;6.728;2023-05-10T15:44:03;20.40;99.90
19085;DHT22;9675;51.538;6.728;2023-05-10T15:46:30;20.40;99.90
19085;DHT22;9675;51.538;6.728;2023-05-10T15:48:59;20.40;99.90
19085;DHT22;9675;51.538;6.728;2023-05-10T15:51:26;20.40;99.90
19085;DHT22;9675;51.538;6.728;2023-05-10T15:53:53;20.40;99.90
19085;DHT22;9675;51.538;6.728;2023-05-10T15:56:21;20.40;99.90
19085;DHT22;9675;51.538;6.728;2023-05-10T15:58:48;20.30;99.90
19085;DHT22;9675;51.538;6.728;2023-05-10T16:01:15;20.40;99.90
19085;DHT22;9675;51.538;6.728;2023-05-10T16:03:42;20.30;99.90